Time;durP1;ratioP1;P1;durP2;ratioP2;P2;SDS_P1;SDS_P2;PMS_P1;PMS_P2;Temp;Humidity;BMP_temperature;BMP_pressure;BME280_temperature;BME280_humidity;BME280_pressure;Samples;Min_cycle;Max_cycle;Signal;HPM_P1;HPM_P2
2022/04/08 00:00:15;;;;;;;;;1.33;0.00;;;;;10.86;100.00;100123.94;6388139;22;45208;-90
2022/04/08 00:02:41;;;;;;;;;1.00;0.00;;;;;10.92;100.00;100118.91;6387295;22;47295;-90
2022/04/08 00:05:07;;;;;;;;;0.67;0.00;;;;;10.90;100.00;100107.44;6415488;22;45487;-90
2022/04/08 00:07:32;;;;;;;;;1.67;0.00;;;;;10.87;100.00;100096.88;6389850;22;44835;-90
2022/04/08 00:09:58;;;;;;;;;0.33;0.33;;;;;10.89;100.00;100089.03;6400290;22;44823;-91
2022/04/08 00:12:23;;;;;;;;;0.00;0.00;;;;;10.86;100.00;100091.53;6400386;22;46496;-90
2022/04/08 00:14:49;;;;;;;;;0.00;0.00;;;;;10.89;100.00;100091.66;6427702;22;44778;-90
2022/04/08 00:17:14;;;;;;;;;1.33;0.00;;;;;10.95;100.00;100103.25;6428768;22;44751;-91
2022/04/08 00:19:39;;;;;;;;;2.00;0.00;;;;;10.90;100.00;100077.69;6400024;22;44817;-90
2022/04/08 00:22:05;;;;;;;;;0.00;0.00;;;;;10.92;100.00;100087.41;6426275;22;45501;-90
2022/04/08 00:24:31;;;;;;;;;0.00;0.00;;;;;10.93;100.00;100094.44;6399573;22;44834;-91
2022/04/08 00:26:56;;;;;;;;;0.00;0.00;;;;;10.93;100.00;100090.91;6400468;22;45407;-90
2022/04/08 00:29:22;;;;;;;;;0.00;0.00;;;;;11.02;100.00;100103.47;6371299;22;45416;-90
2022/04/08 00:31:47;;;;;;;;;0.00;0.00;;;;;10.93;100.00;100089.16;6370409;22;47095;-91
2022/04/08 00:34:12;;;;;;;;;0.67;0.67;;;;;11.01;100.00;100091.16;6399425;22;45261;-91
2022/04/08 00:36:38;;;;;;;;;0.00;0.00;;;;;10.97;100.00;100092.81;6370327;22;45414;-90
2022/04/08 00:39:03;;;;;;;;;1.00;1.00;;;;;10.97;100.00;100078.78;6370728;22;45433;-90
2022/04/08 00:41:29;;;;;;;;;0.00;0.00;;;;;11.00;100.00;100074.53;6371513;22;47374;-91
2022/04/08 00:43:54;;;;;;;;;2.33;0.67;;;;;10.98;100.00;100075.31;6374339;22;45274;-91
2022/04/08 00:46:19;;;;;;;;;0.00;0.00;;;;;11.02;100.00;100087.69;6385259;22;44720;-91
2022/04/08 00:48:45;;;;;;;;;0.67;0.67;;;;;10.97;100.00;100066.53;6391746;22;45204;-90
2022/04/08 00:51:10;;;;;;;;;1.00;1.00;;;;;11.03;100.00;100073.75;6377160;22;46988;-91
2022/04/08 00:53:37;;;;;;;;;2.00;0.00;;;;;11.09;100.00;100081.81;6399504;22;45378;-90
2022/04/08 00:56:03;;;;;;;;;2.00;0.00;;;;;11.04;100.00;100065.00;6371010;22;45434;-91
2022/04/08 00:58:31;;;;;;;;;0.00;0.00;;;;;11.09;100.00;100079.19;6369881;22;45284;-90
2022/04/08 01:00:57;;;;;;;;;0.00;0.00;;;;;11.05;100.00;100072.06;6398845;22;45318;-91
2022/04/08 01:03:22;;;;;;;;;1.00;1.00;;;;;11.11;100.00;100080.09;6399623;22;45349;-91
2022/04/08 01:05:48;;;;;;;;;0.33;0.33;;;;;11.00;100.00;100058.78;6397611;22;45532;-89
2022/04/08 01:08:17;;;;;;;;;1.33;0.00;;;;;11.07;100.00;100070.38;6369683;22;45454;-90
2022/04/08 01:10:42;;;;;;;;;1.00;1.00;;;;;11.08;100.00;100066.88;6369699;22;47121;-91
2022/04/08 01:13:08;;;;;;;;;0.00;0.00;;;;;11.05;100.00;100059.81;6369723;22;45485;-91
2022/04/08 01:15:33;;;;;;;;;0.00;0.00;;;;;11.05;100.00;100062.44;6369475;22;45557;-90
2022/04/08 01:17:58;;;;;;;;;1.00;0.00;;;;;11.06;100.00;100055.44;6398868;22;45386;-91
2022/04/08 01:20:24;;;;;;;;;0.00;0.00;;;;;11.11;100.00;100061.72;6397954;22;45542;-91
2022/04/08 01:22:49;;;;;;;;;0.00;0.00;;;;;11.09;100.00;100049.38;6398103;22;45588;-90
2022/04/08 01:25:15;;;;;;;;;1.33;0.00;;;;;11.12;100.00;100049.50;6398609;22;45727;-91
2022/04/08 01:27:40;;;;;;;;;1.67;0.67;;;;;11.13;100.00;100054.78;6370391;22;45417;-91
2022/04/08 01:30:08;;;;;;;;;0.00;0.00;;;;;11.13;100.00;100056.53;6397828;22;46181;-90
2022/04/08 01:32:34;;;;;;;;;1.67;0.00;;;;;11.08;100.00;100047.63;6370471;22;45280;-90
2022/04/08 01:35:00;;;;;;;;;4.00;1.00;;;;;11.11;100.00;100048.59;6399219;22;45402;-90
2022/04/08 01:37:25;;;;;;;;;0.00;0.00;;;;;11.07;100.00;100044.09;6397899;22;45285;-88
2022/04/08 01:39:50;;;;;;;;;1.67;1.00;;;;;11.12;100.00;100047.75;6398863;22;45959;-90
2022/04/08 01:42:21;;;;;;;;;1.00;0.00;;;;;11.08;100.00;100037.13;6398890;22;45413;-90
2022/04/08 01:44:48;;;;;;;;;1.00;0.00;;;;;10.98;100.00;100023.66;6397690;22;45596;-90
2022/04/08 01:47:13;;;;;;;;;0.00;0.00;;;;;11.10;100.00;100038.94;6398928;22;45302;-90
2022/04/08 01:49:39;;;;;;;;;2.00;0.67;;;;;11.01;100.00;100031.66;6398426;22;46099;-90
2022/04/08 01:52:04;;;;;;;;;0.67;0.33;;;;;11.09;100.00;100034.53;6397362;22;45632;-90
2022/04/08 01:54:30;;;;;;;;;2.33;0.00;;;;;11.00;100.00;100018.50;6369259;22;45449;-90
2022/04/08 01:56:55;;;;;;;;;1.00;0.00;;;;;11.00;100.00;100016.75;6369716;22;45284;-90
2022/04/08 01:59:21;;;;;;;;;1.33;0.00;;;;;11.04;100.00;100017.72;6369389;22;47742;-90
2022/04/08 02:01:46;;;;;;;;;1.00;1.00;;;;;11.01;100.00;100013.28;6368639;22;45613;-89
2022/04/08 02:04:11;;;;;;;;;1.33;0.00;;;;;10.94;100.00;99999.06;6397277;22;45369;-90
2022/04/08 02:06:40;;;;;;;;;1.33;1.00;;;;;11.02;100.00;100012.44;6398292;22;45334;-90
2022/04/08 02:09:09;;;;;;;;;0.00;0.00;;;;;11.00;100.00;100007.97;6399215;22;45402;-90
2022/04/08 02:11:36;;;;;;;;;0.00;0.00;;;;;11.06;100.00;100024.81;6398865;22;45572;-90
2022/04/08 02:14:02;;;;;;;;;1.00;0.00;;;;;11.02;100.00;100020.31;6347998;22;45675;-91
2022/04/08 02:16:28;;;;;;;;;1.00;1.00;;;;;10.99;100.00;100012.34;6333360;22;45465;-90
2022/04/08 02:18:53;;;;;;;;;0.00;0.00;;;;;10.97;100.00;100000.00;6332469;22;47621;-89
2022/04/08 02:21:19;;;;;;;;;0.00;0.00;;;;;10.98;100.00;100007.91;6332418;22;46060;-90
2022/04/08 02:23:49;;;;;;;;;0.00;0.00;;;;;10.98;100.00;100004.41;6332520;22;45419;-90
2022/04/08 02:26:16;;;;;;;;;3.00;0.00;;;;;11.00;100.00;100013.22;6332923;22;45268;-90
2022/04/08 02:28:45;;;;;;;;;0.00;0.00;;;;;11.04;100.00;100012.47;6331538;22;46214;-90
2022/04/08 02:31:11;;;;;;;;;0.00;0.00;;;;;11.05;100.00;100014.28;6332828;22;46292;-90
2022/04/08 02:33:37;;;;;;;;;2.00;1.00;;;;;11.00;100.00;99997.47;6335227;22;45288;-90
2022/04/08 02:36:03;;;;;;;;;1.00;1.00;;;;;11.07;100.00;99996.81;6334348;22;45303;-89
2022/04/08 02:38:28;;;;;;;;;1.00;0.00;;;;;11.05;100.00;99994.16;6333259;22;46894;-91
2022/04/08 02:40:54;;;;;;;;;2.00;1.00;;;;;10.94;100.00;99988.56;6334768;22;45245;-91
2022/04/08 02:43:19;;;;;;;;;1.33;0.67;;;;;11.00;100.00;99990.50;6331810;22;45469;-90
2022/04/08 02:45:44;;;;;;;;;1.67;0.00;;;;;11.01;100.00;99987.00;6334153;22;45501;-91
2022/04/08 02:48:13;;;;;;;;;1.00;1.00;;;;;11.02;100.00;99982.66;6334638;22;45836;-91
2022/04/08 02:50:39;;;;;;;;;3.00;0.00;;;;;10.95;100.00;99971.94;6334552;22;45371;-90
2022/04/08 02:53:05;;;;;;;;;2.67;0.00;;;;;11.00;100.00;99964.25;6334212;22;45511;-89
2022/04/08 02:55:30;;;;;;;;;0.00;0.00;;;;;10.94;100.00;99948.28;6334570;22;45438;-90
2022/04/08 02:57:56;;;;;;;;;1.00;1.00;;;;;11.02;100.00;99956.41;6332552;22;47251;-91
2022/04/08 03:00:21;;;;;;;;;0.00;0.00;;;;;11.08;100.00;99960.94;6331715;22;45663;-89
2022/04/08 03:02:48;;;;;;;;;0.00;0.00;;;;;11.05;100.00;99960.03;6334634;22;45248;-91
2022/04/08 03:05:15;;;;;;;;;1.00;1.00;;;;;11.11;100.00;99966.28;6331684;22;45432;-90
2022/04/08 03:07:41;;;;;;;;;0.67;0.67;;;;;11.11;100.00;99950.50;6333850;22;45262;-91
2022/04/08 03:10:08;;;;;;;;;1.00;0.00;;;;;11.10;100.00;99954.91;6334564;22;45531;-90
2022/04/08 03:12:34;;;;;;;;;0.00;0.00;;;;;11.09;100.00;99946.97;6334888;22;45292;-90
2022/04/08 03:14:59;;;;;;;;;1.00;0.00;;;;;11.14;100.00;99954.13;6330512;22;45281;-91
2022/04/08 03:17:25;;;;;;;;;0.67;0.67;;;;;11.14;100.00;99953.25;6332413;22;48056;-91
2022/04/08 03:19:51;;;;;;;;;0.00;0.00;;;;;11.03;100.00;99926.69;6335271;22;45388;-91
2022/04/08 03:22:20;;;;;;;;;0.67;0.67;;;;;11.14;100.00;99940.09;6333733;22;45331;-90
2022/04/08 03:24:50;;;;;;;;;0.00;0.00;;;;;11.15;100.00;99948.06;6331380;22;45387;-90
2022/04/08 03:27:16;;;;;;;;;0.33;0.33;;;;;11.08;100.00;99938.19;6332129;22;47034;-91
2022/04/08 03:29:41;;;;;;;;;0.67;0.00;;;;;11.10;100.00;99928.63;6331340;22;45913;-90
2022/04/08 03:32:07;;;;;;;;;0.33;0.33;;;;;11.13;100.00;99933.94;6334376;22;45417;-91
2022/04/08 03:34:33;;;;;;;;;0.00;0.00;;;;;11.07;100.00;99923.28;6333639;22;45479;-90
2022/04/08 03:36:58;;;;;;;;;1.00;0.00;;;;;11.04;100.00;99920.56;6333451;22;46485;-91
2022/04/08 03:39:23;;;;;;;;;0.00;0.00;;;;;11.01;100.00;99920.47;6332822;22;45344;-91
2022/04/08 03:41:49;;;;;;;;;1.00;1.00;;;;;11.06;100.00;99924.13;6334047;22;45470;-91
2022/04/08 03:44:15;;;;;;;;;1.33;0.00;;;;;11.02;100.00;99910.03;6331051;22;45508;-91
2022/04/08 03:46:46;;;;;;;;;1.00;0.00;;;;;10.96;100.00;99891.44;6333323;22;45544;-90
2022/04/08 03:49:16;;;;;;;;;1.00;1.00;;;;;10.91;100.00;99886.06;6334063;22;45231;-90
2022/04/08 03:51:42;;;;;;;;;1.67;0.00;;;;;10.94;100.00;99882.63;6333688;22;45293;-90
2022/04/08 03:54:09;;;;;;;;;1.00;0.00;;;;;10.82;100.00;99870.03;6331754;22;45504;-92
2022/04/08 03:56:35;;;;;;;;;0.00;0.00;;;;;10.86;100.00;99873.63;6333430;22;46463;-90
2022/04/08 03:59:00;;;;;;;;;0.67;0.33;;;;;10.72;100.00;99840.88;6334193;22;44771;-91
2022/04/08 04:01:26;;;;;;;;;1.67;1.00;;;;;10.70;100.00;99823.28;6331418;22;45418;-92
2022/04/08 04:03:51;;;;;;;;;0.67;0.67;;;;;10.61;100.00;99816.94;6334270;22;45444;-91
2022/04/08 04:06:17;;;;;;;;;0.67;0.00;;;;;10.56;100.00;99810.66;6333818;22;46265;-91
2022/04/08 04:08:42;;;;;;;;;0.00;0.00;;;;;10.53;100.00;99809.66;6332015;22;45146;-90
2022/04/08 04:11:07;;;;;;;;;0.33;0.33;;;;;10.54;100.00;99807.09;6334785;22;45312;-91
2022/04/08 04:13:33;;;;;;;;;2.67;1.00;;;;;10.58;100.00;99811.59;6350017;22;45320;-91
2022/04/08 04:15:59;;;;;;;;;0.67;0.67;;;;;10.48;100.00;99792.03;6397630;22;45663;-91
2022/04/08 04:18:26;;;;;;;;;1.33;1.33;;;;;10.47;100.00;99785.00;6369671;22;45724;-91
2022/04/08 04:20:52;;;;;;;;;1.00;1.00;;;;;10.47;100.00;99777.13;6374487;22;45358;-90
2022/04/08 04:23:17;;;;;;;;;0.00;0.00;;;;;10.43;100.00;99756.91;6411830;22;45236;-91
2022/04/08 04:25:43;;;;;;;;;0.00;0.00;;;;;10.45;100.00;99749.94;6425910;22;45280;-90
2022/04/08 04:28:08;;;;;;;;;1.00;0.00;;;;;10.35;100.00;99729.53;6428459;22;44757;-91
2022/04/08 04:30:34;;;;;;;;;0.00;0.00;;;;;10.34;100.00;99720.78;6420829;22;44906;-90
2022/04/08 04:33:00;;;;;;;;;1.67;1.00;;;;;10.27;100.00;99710.94;6382238;22;45279;-91
2022/04/08 04:35:26;;;;;;;;;2.00;0.33;;;;;10.22;100.00;99692.44;6371007;22;47901;-91
2022/04/08 04:37:51;;;;;;;;;1.67;1.67;;;;;10.23;100.00;99685.47;6399155;22;45331;-91
2022/04/08 04:40:16;;;;;;;;;1.00;1.00;;;;;10.23;100.00;99675.84;6399711;22;45260;-88
2022/04/08 04:42:42;;;;;;;;;0.00;0.00;;;;;10.22;100.00;99684.59;6371481;22;45376;-90
2022/04/08 04:45:10;;;;;;;;;1.00;0.00;;;;;10.20;100.00;99670.53;6369354;22;46452;-89
2022/04/08 04:47:36;;;;;;;;;1.33;0.33;;;;;10.19;100.00;99663.50;6400444;22;45276;-90
2022/04/08 04:50:02;;;;;;;;;0.00;0.00;;;;;10.13;100.00;99643.22;6400227;22;45543;-90
2022/04/08 04:52:27;;;;;;;;;0.00;0.00;;;;;10.10;100.00;99622.16;6401353;22;45319;-91
2022/04/08 04:54:52;;;;;;;;;1.00;1.00;;;;;10.13;100.00;99619.63;6401090;22;45395;-91
2022/04/08 04:57:18;;;;;;;;;1.00;0.00;;;;;10.04;100.00;99614.13;6399852;22;45481;-90
2022/04/08 04:59:43;;;;;;;;;1.00;1.00;;;;;10.06;100.00;99609.81;6371384;22;45362;-90
2022/04/08 05:02:09;;;;;;;;;1.00;0.67;;;;;9.99;100.00;99582.53;6370593;22;45390;-89
2022/04/08 05:04:34;;;;;;;;;1.67;1.67;;;;;10.01;100.00;99585.19;6370234;22;48241;-91
2022/04/08 05:07:00;;;;;;;;;0.00;0.00;;;;;9.97;100.00;99572.84;6397723;22;45486;-91
2022/04/08 05:09:25;;;;;;;;;1.00;1.00;;;;;9.94;100.00;99568.41;6397910;22;45396;-91
2022/04/08 05:11:51;;;;;;;;;0.00;0.00;;;;;9.99;100.00;99561.56;6369925;22;45395;-89
2022/04/08 05:14:16;;;;;;;;;0.00;0.00;;;;;9.98;100.00;99553.63;6368984;22;48349;-90
2022/04/08 05:16:41;;;;;;;;;1.67;1.00;;;;;9.96;100.00;99543.13;6369150;22;45417;-90
2022/04/08 05:19:07;;;;;;;;;2.33;1.00;;;;;9.92;100.00;99525.53;6369902;22;45206;-90
2022/04/08 05:21:33;;;;;;;;;0.33;0.00;;;;;9.93;100.00;99528.19;6369422;22;45471;-90
2022/04/08 05:23:59;;;;;;;;;0.33;0.33;;;;;9.93;100.00;99514.19;6398477;22;45398;-90
2022/04/08 05:26:24;;;;;;;;;0.00;0.00;;;;;9.95;100.00;99525.59;6369096;22;45412;-91
2022/04/08 05:28:50;;;;;;;;;0.00;0.00;;;;;9.90;100.00;99507.13;6369667;22;45512;-90
2022/04/08 05:31:15;;;;;;;;;0.00;0.00;;;;;9.94;100.00;99502.88;6369566;22;45248;-91
2022/04/08 05:33:42;;;;;;;;;1.33;0.33;;;;;9.89;100.00;99494.91;6398866;22;45306;-90
2022/04/08 05:36:07;;;;;;;;;0.00;0.00;;;;;9.94;100.00;99489.78;6369280;22;45900;-90
2022/04/08 05:38:33;;;;;;;;;1.00;0.33;;;;;9.93;100.00;99480.13;6397862;22;45475;-91
2022/04/08 05:40:58;;;;;;;;;1.00;1.00;;;;;9.87;100.00;99464.25;6369998;22;45295;-91
2022/04/08 05:43:23;;;;;;;;;1.00;1.00;;;;;9.94;100.00;99468.81;6369909;22;47069;-90
2022/04/08 05:45:48;;;;;;;;;1.00;1.00;;;;;9.84;100.00;99451.94;6397465;22;45345;-91
2022/04/08 05:48:14;;;;;;;;;0.00;0.00;;;;;9.90;100.00;99448.56;6370278;22;45452;-91
2022/04/08 05:50:39;;;;;;;;;0.00;0.00;;;;;9.91;100.00;99446.00;6398149;22;45303;-91
2022/04/08 05:53:05;;;;;;;;;1.33;1.00;;;;;9.88;100.00;99429.31;6369248;22;47180;-89
2022/04/08 05:55:30;;;;;;;;;1.00;1.00;;;;;9.92;100.00;99434.66;6370173;22;45504;-90
2022/04/08 05:57:57;;;;;;;;;2.00;1.67;;;;;9.90;100.00;99419.75;6378157;22;46364;-91
2022/04/08 06:00:23;;;;;;;;;2.00;0.00;;;;;9.92;100.00;99424.19;6355235;22;45568;-91
2022/04/08 06:02:49;;;;;;;;;1.00;1.00;;;;;9.92;100.00;99412.84;6389409;22;45904;-91
2022/04/08 06:05:18;;;;;;;;;1.67;1.00;;;;;9.88;100.00;99408.34;6412302;22;44790;-90
2022/04/08 06:10:36;;;;;;;;;5.33;0.33;;;;;9.89;100.00;99392.66;6410890;22;45934;-88
2022/04/08 06:13:24;;;;;;;;;2.67;1.00;;;;;9.78;100.00;99378.38;6364516;22;46437;-89
2022/04/08 06:15:51;;;;;;;;;1.00;1.00;;;;;9.90;100.00;99390.91;6375626;22;45477;-90
2022/04/08 06:18:20;;;;;;;;;1.00;0.00;;;;;9.88;100.00;99379.50;6403921;22;45240;-88
2022/04/08 06:20:46;;;;;;;;;1.00;0.00;;;;;9.86;100.00;99374.22;6336009;22;44819;-90
2022/04/08 06:23:11;;;;;;;;;1.67;1.00;;;;;9.82;100.00;99365.38;6375834;22;46833;-90
2022/04/08 06:25:37;;;;;;;;;0.00;0.00;;;;;9.82;100.00;99365.38;6370814;22;45479;-83
2022/04/08 06:28:04;;;;;;;;;3.00;3.00;;;;;9.80;100.00;99360.97;6397899;22;46238;-83
2022/04/08 06:30:40;;;;;;;;;7.67;3.67;;;;;9.77;100.00;99338.19;6396701;22;45346;-83
2022/04/08 06:33:07;;;;;;;;;0.00;0.00;;;;;9.77;100.00;99337.28;6396484;22;46278;-83
2022/04/08 06:35:33;;;;;;;;;0.00;0.00;;;;;9.74;100.00;99339.84;6395868;22;45378;-82
2022/04/08 06:38:04;;;;;;;;;1.00;1.00;;;;;9.71;100.00;99336.31;6367139;22;45594;-82
2022/04/08 06:40:32;;;;;;;;;1.67;0.00;;;;;9.68;100.00;99336.22;6395779;22;45402;-82
2022/04/08 06:42:59;;;;;;;;;2.00;0.33;;;;;9.65;100.00;99333.50;6363836;22;47003;-84
2022/04/08 06:45:26;;;;;;;;;0.00;0.00;;;;;9.67;100.00;99351.88;6365780;22;45771;-83
2022/04/08 06:47:52;;;;;;;;;0.67;0.00;;;;;9.61;100.00;99329.91;6396132;22;45635;-84
2022/04/08 06:50:18;;;;;;;;;0.33;0.33;;;;;9.63;100.00;99337.84;6393728;22;45399;-83
2022/04/08 06:52:43;;;;;;;;;2.00;0.00;;;;;9.61;100.00;99337.78;6392703;22;45366;-84
2022/04/08 06:55:09;;;;;;;;;0.00;0.00;;;;;9.60;100.00;99332.50;6393599;22;45610;-84
2022/04/08 06:57:35;;;;;;;;;0.33;0.00;;;;;9.57;100.00;99330.69;6395268;22;45434;-84
2022/04/08 07:00:01;;;;;;;;;0.00;0.00;;;;;9.57;100.00;99324.56;6395181;22;45282;-85
2022/04/08 07:02:28;;;;;;;;;0.00;0.00;;;;;9.57;100.00;99327.19;6396130;22;45618;-84
2022/04/08 07:04:54;;;;;;;;;0.00;0.00;;;;;9.54;100.00;99325.38;6394997;22;45345;-84
2022/04/08 07:07:19;;;;;;;;;0.00;0.00;;;;;9.53;100.00;99318.38;6394666;22;45672;-84
2022/04/08 07:09:44;;;;;;;;;0.00;0.00;;;;;9.53;100.00;99310.50;6395182;22;45984;-84
2022/04/08 07:12:10;;;;;;;;;1.00;1.00;;;;;9.53;100.00;99302.66;6395626;22;49503;-85
2022/04/08 07:14:35;;;;;;;;;0.00;0.00;;;;;9.55;100.00;99300.94;6395528;22;45400;-84
2022/04/08 07:17:00;;;;;;;;;0.00;0.00;;;;;9.55;100.00;99276.47;6391445;22;49048;-84
2022/04/08 07:19:25;;;;;;;;;0.00;0.00;;;;;9.57;100.00;99270.44;6391951;22;45515;-84
2022/04/08 07:21:51;;;;;;;;;0.00;0.00;;;;;9.58;100.00;99251.25;6394500;22;45299;-84
2022/04/08 07:24:16;;;;;;;;;1.00;1.00;;;;;9.61;100.00;99246.06;6395182;22;45354;-85
2022/04/08 07:26:42;;;;;;;;;1.00;1.00;;;;;9.64;100.00;99244.41;6366241;22;45243;-84
2022/04/08 07:29:07;;;;;;;;;2.00;2.00;;;;;9.65;100.00;99225.19;6365405;22;45417;-84
2022/04/08 07:31:34;;;;;;;;;0.00;0.00;;;;;9.68;100.00;99226.19;6394668;22;50689;-84
2022/04/08 07:33:59;;;;;;;;;1.00;1.00;;;;;9.70;100.00;99215.72;6394841;22;45383;-84
2022/04/08 07:36:26;;;;;;;;;0.33;0.33;;;;;9.71;100.00;99225.38;6394567;22;45310;-84
2022/04/08 07:38:51;;;;;;;;;1.33;1.33;;;;;9.69;100.00;99219.22;6366895;22;45482;-85
2022/04/08 07:41:17;;;;;;;;;1.00;1.00;;;;;9.67;100.00;99213.91;6365984;22;46203;-85
2022/04/08 07:43:42;;;;;;;;;1.33;1.00;;;;;9.66;100.00;99213.88;6395253;22;45256;-85
2022/04/08 07:46:08;;;;;;;;;3.33;2.00;;;;;9.64;100.00;99194.63;6392620;22;45295;-85
2022/04/08 07:48:33;;;;;;;;;1.00;1.00;;;;;9.61;100.00;99187.59;6396141;22;45324;-85
2022/04/08 07:50:58;;;;;;;;;1.00;1.00;;;;;9.60;100.00;99181.44;6394506;22;45423;-85
2022/04/08 07:53:24;;;;;;;;;3.33;1.00;;;;;9.57;100.00;99189.22;6395201;22;45390;-85
2022/04/08 07:55:49;;;;;;;;;2.00;2.00;;;;;9.55;100.00;99164.72;6395553;22;45208;-85
2022/04/08 07:58:15;;;;;;;;;3.00;2.00;;;;;9.50;100.00;99141.06;6394702;22;48225;-84
2022/04/08 08:00:40;;;;;;;;;3.67;2.00;;;;;9.53;100.00;99131.50;6395425;22;46373;-84
2022/04/08 08:03:06;;;;;;;;;0.67;0.67;;;;;9.52;100.00;99129.72;6397651;22;45341;-86
2022/04/08 08:05:32;;;;;;;;;0.00;0.00;;;;;9.50;100.00;99134.94;6397127;22;45343;-85
2022/04/08 08:08:00;;;;;;;;;1.00;1.00;;;;;9.52;100.00;99132.31;6371750;22;45291;-85
2022/04/08 08:10:28;;;;;;;;;2.00;1.00;;;;;9.46;100.00;99117.34;6403481;22;46399;-84
2022/04/08 08:12:54;;;;;;;;;3.00;0.67;;;;;9.46;100.00;99123.47;6418076;22;45200;-84
2022/04/08 08:15:20;;;;;;;;;0.00;0.00;;;;;9.43;100.00;99120.78;6405040;22;45143;-84
2022/04/08 08:17:46;;;;;;;;;1.00;1.00;;;;;9.46;100.00;99112.09;6368628;22;45520;-84
2022/04/08 08:20:14;;;;;;;;;3.00;2.00;;;;;9.46;100.00;99125.22;6399049;22;45599;-85
2022/04/08 08:22:41;;;;;;;;;1.00;1.00;;;;;9.44;100.00;99117.31;6369509;22;45987;-85
2022/04/08 08:25:07;;;;;;;;;2.00;2.00;;;;;9.45;100.00;99089.41;6397677;22;45379;-84
2022/04/08 08:27:40;;;;;;;;;2.67;2.00;;;;;9.47;100.00;99082.47;6397942;22;45290;-85
2022/04/08 08:30:10;;;;;;;;;2.00;1.00;;;;;9.47;100.00;99072.00;6365914;22;47266;-84
2022/04/08 08:32:35;;;;;;;;;2.00;2.00;;;;;9.44;100.00;99085.91;6396585;22;45269;-85
2022/04/08 08:35:01;;;;;;;;;1.33;1.00;;;;;9.42;100.00;99073.63;6368531;22;45389;-85
2022/04/08 08:37:26;;;;;;;;;3.00;2.00;;;;;9.42;100.00;99056.19;6396532;22;45518;-85
2022/04/08 08:39:55;;;;;;;;;1.67;1.67;;;;;9.42;100.00;99043.09;6368103;22;48231;-85
2022/04/08 08:42:22;;;;;;;;;2.67;2.00;;;;;9.43;100.00;99051.81;6368331;22;45326;-85
2022/04/08 08:44:47;;;;;;;;;2.67;2.00;;;;;9.37;100.00;99042.97;6367308;22;45294;-85
2022/04/08 08:47:16;;;;;;;;;3.00;3.00;;;;;9.45;100.00;99048.41;6367752;22;45542;-85
2022/04/08 08:49:47;;;;;;;;;3.67;2.00;;;;;9.44;100.00;99056.19;6368291;22;48747;-85
2022/04/08 08:52:14;;;;;;;;;1.00;1.00;;;;;9.39;100.00;99040.38;6396898;22;45496;-85
2022/04/08 08:54:40;;;;;;;;;1.67;1.67;;;;;9.35;100.00;99020.22;6369167;22;45316;-85
2022/04/08 08:57:08;;;;;;;;;2.67;2.67;;;;;9.37;100.00;99006.31;6396829;22;45510;-85
2022/04/08 08:59:33;;;;;;;;;2.00;2.00;;;;;9.42;100.00;99001.19;6396729;22;46042;-85
2022/04/08 09:02:00;;;;;;;;;2.00;2.00;;;;;9.44;100.00;99003.81;6367028;22;45618;-85
2022/04/08 09:04:26;;;;;;;;;1.00;1.00;;;;;9.41;100.00;98973.22;6368413;22;45266;-84
2022/04/08 09:06:51;;;;;;;;;4.00;2.67;;;;;9.42;100.00;98961.00;6367270;22;45641;-84
2022/04/08 09:09:30;;;;;;;;;2.33;2.33;;;;;9.37;100.00;98950.44;6397269;22;45352;-85
2022/04/08 09:11:57;;;;;;;;;2.00;2.00;;;;;9.33;100.00;98961.72;6367671;22;45377;-85
2022/04/08 09:14:30;;;;;;;;;4.33;2.00;;;;;9.27;100.00;98978.16;6396895;22;45428;-84
2022/04/08 09:17:01;;;;;;;;;2.33;2.33;;;;;9.22;100.00;98970.22;6367218;22;45377;-85
2022/04/08 09:19:31;;;;;;;;;2.00;2.00;;;;;9.15;100.00;98937.75;6397020;22;46123;-86
2022/04/08 09:21:56;;;;;;;;;1.00;0.00;;;;;9.10;100.00;98943.72;6396670;22;45441;-84
2022/04/08 09:24:23;;;;;;;;;2.00;1.00;;;;;9.05;100.00;98961.97;6368060;22;45305;-85
2022/04/08 09:26:55;;;;;;;;;2.67;1.33;;;;;9.02;100.00;98970.63;6367933;22;45495;-84
2022/04/08 09:29:22;;;;;;;;;1.67;1.67;;;;;8.99;100.00;98952.25;6393277;22;45543;-84
2022/04/08 09:31:49;;;;;;;;;4.00;2.00;;;;;8.92;100.00;98909.34;6395331;22;45442;-84
2022/04/08 09:34:16;;;;;;;;;4.33;3.00;;;;;8.85;100.00;98990.28;6367824;22;45299;-84
2022/04/08 09:36:42;;;;;;;;;2.00;1.67;;;;;8.79;100.00;99032.88;6366632;22;45306;-83
2022/04/08 09:39:10;;;;;;;;;5.00;1.00;;;;;8.72;100.00;98961.22;6395917;22;45382;-84
2022/04/08 09:41:38;;;;;;;;;0.33;0.00;;;;;8.73;100.00;98964.72;6367204;22;45586;-83
2022/04/08 09:44:04;;;;;;;;;1.00;1.00;;;;;8.73;100.00;98986.53;6394321;22;45326;-83
2022/04/08 09:46:29;;;;;;;;;2.00;2.00;;;;;8.67;100.00;98963.72;6363130;22;45760;-84
2022/04/08 09:48:55;;;;;;;;;1.33;1.33;;;;;8.75;100.00;98963.91;6394572;22;45582;-83
2022/04/08 09:51:21;;;;;;;;;0.67;0.67;;;;;8.80;100.00;98961.41;6366475;22;45687;-85
2022/04/08 09:54:06;;;;;;;;;3.00;2.33;;;;;8.83;100.00;98953.63;6396691;22;45331;-83
2022/04/08 09:56:34;;;;;;;;;1.00;1.00;;;;;8.84;100.00;98973.69;6396292;22;45590;-84
2022/04/08 09:59:13;;;;;;;;;2.00;2.00;;;;;8.85;100.00;98962.41;6364814;22;47142;-84
2022/04/08 10:01:40;;;;;;;;;1.00;1.00;;;;;8.83;100.00;98978.06;6367072;22;45322;-83
2022/04/08 10:04:07;;;;;;;;;1.33;1.33;;;;;8.80;100.00;98998.91;6396153;22;45287;-84
2022/04/08 10:06:36;;;;;;;;;0.67;0.67;;;;;8.77;100.00;99014.53;6367077;22;45284;-84
2022/04/08 10:09:05;;;;;;;;;2.00;2.00;;;;;8.73;100.00;99007.47;6396837;22;45331;-84
2022/04/08 10:11:51;;;;;;;;;1.00;1.00;;;;;8.77;100.00;98988.38;6396794;22;45338;-83
2022/04/08 10:14:26;;;;;;;;;1.67;1.00;;;;;8.80;100.00;98951.81;6399555;22;45749;-85
2022/04/08 10:16:55;;;;;;;;;2.00;2.00;;;;;8.79;100.00;98952.66;6369944;22;45307;-85
2022/04/08 10:19:22;;;;;;;;;2.00;1.00;;;;;8.78;100.00;98921.25;6398813;22;46582;-85
2022/04/08 10:22:00;;;;;;;;;3.33;3.33;;;;;8.75;100.00;98905.47;6394807;22;45464;-83
2022/04/08 10:24:32;;;;;;;;;3.00;2.00;;;;;8.75;100.00;98898.50;6366114;22;45274;-84
2022/04/08 10:27:17;;;;;;;;;2.33;2.00;;;;;8.74;100.00;98890.59;6396814;22;45441;-85
2022/04/08 10:29:54;;;;;;;;;2.00;2.00;;;;;8.74;100.00;98848.75;6368188;22;46665;-84
2022/04/08 10:32:19;;;;;;;;;2.00;2.00;;;;;8.72;100.00;98822.56;6367030;22;45338;-83
2022/04/08 10:34:45;;;;;;;;;6.33;4.33;;;;;8.79;100.00;98815.72;6395197;22;45408;-84
2022/04/08 10:37:20;;;;;;;;;5.67;3.33;;;;;8.85;100.00;98807.13;6394600;22;46963;-84
2022/04/08 10:40:02;;;;;;;;;6.67;3.00;;;;;8.89;100.00;98767.97;6364318;22;46063;-84
2022/04/08 10:42:28;;;;;;;;;4.33;1.67;;;;;8.81;100.00;98786.13;6396150;22;45478;-84
2022/04/08 10:44:54;;;;;;;;;4.33;2.00;;;;;8.80;100.00;98813.16;6395030;22;45343;-84
2022/04/08 10:47:21;;;;;;;;;2.33;2.33;;;;;8.80;100.00;98815.78;6396248;22;45286;-84
2022/04/08 10:50:02;;;;;;;;;7.00;3.00;;;;;8.83;100.00;98839.41;6366631;22;48118;-84
2022/04/08 10:52:30;;;;;;;;;5.67;2.00;;;;;8.83;100.00;98881.25;6395057;22;45357;-84
2022/04/08 10:55:06;;;;;;;;;3.00;3.00;;;;;8.89;100.00;98863.94;6366090;22;45367;-84
2022/04/08 10:57:35;;;;;;;;;2.00;2.00;;;;;8.94;100.00;98807.34;6366019;22;45782;-84
2022/04/08 11:00:06;;;;;;;;;2.67;1.00;;;;;8.98;100.00;98803.94;6393825;22;46429;-85
2022/04/08 11:02:42;;;;;;;;;2.00;2.00;;;;;8.97;100.00;98824.84;6395577;22;45192;-83
2022/04/08 11:05:10;;;;;;;;;1.00;1.00;;;;;8.92;100.00;98871.81;6394754;22;45324;-83
2022/04/08 11:07:42;;;;;;;;;2.00;2.00;;;;;8.86;100.00;98845.53;6366924;22;45619;-83
2022/04/08 11:10:12;;;;;;;;;2.00;2.00;;;;;8.85;100.00;98800.19;6365788;22;47494;-84
2022/04/08 11:12:46;;;;;;;;;2.33;1.00;;;;;8.84;100.00;98806.25;6366818;22;45306;-84
2022/04/08 11:15:19;;;;;;;;;1.33;0.33;;;;;8.81;100.00;98822.75;6394444;22;45396;-83
2022/04/08 11:17:48;;;;;;;;;1.33;1.33;;;;;8.74;100.00;98797.31;6396128;22;45458;-84
2022/04/08 11:20:16;;;;;;;;;2.00;1.33;;;;;8.73;100.00;98776.38;6398983;22;45357;-83
2022/04/08 11:22:43;;;;;;;;;1.67;1.67;;;;;8.75;100.00;98778.19;6397154;22;45327;-83
2022/04/08 11:25:09;;;;;;;;;1.67;1.33;;;;;8.75;100.00;98785.13;6366254;22;45391;-83
2022/04/08 11:27:35;;;;;;;;;3.00;1.67;;;;;8.73;100.00;98784.22;6367623;22;45240;-83